Airfield :
LOGIN :

Register | Disclaimer

   EN    FR    IT 

 










Legend :    VFR   Marginal VFR   IFR   Intensive IFR   Very Intensive IFR
Visi :
Ceiling :
>= 8 km
>= 3000ft
5 to 8 km
1000 to 3000 ft
1500m to 5 km
500 to 1000 ft
800 to 1500m
200 to 500 ft
< 800m
< 200 ft
Symbols :   Thunderstorms  Fog  Heavy snow  Heavy precipitations  Wind > 20 kt
SIGMETs :     Misc.  Thunderstorms  Icing  Turbulence  Mountain Waves  Volcanic Ashes







- Airport Elevation : 65 ft
- IATA code : LLA


ESPA - Luleå

CURRENT METAR :
  • 192220Z 34011KT 1100 0900// R14/1900N R32/P2000N -SN VV015 M05/M05 Q0985

EXPIRED METARs :
  • 192150Z 34008KT 3200 -SN BR BKN002 OVC005 M05/M05 Q0984
  • 192120Z 34006KT 2400 1100// R14/P2000N R32/1900U BR OVC002 M05/M06 Q0983
  • 192050Z VRB02KT 0100 R14/0375V0650U R32/0350N FZFG VV002 M05/M06 Q0983
  • 192020Z 33003KT 0150 0100// R14/0500V0900D R32/0400V0550N FZFG VV001 M05/M06 Q0983
  • 191950Z 00000KT 0150 R14/P2000N R32/0500N FZFG VV002 M05/M06 Q0983

TAF TAF ESPA
Valid from the 19 at 21:00 until the 20 at 00:00 UTC


192030Z 1921/1924 VRB02KT 0300 FZFG VV002
BECMG 1921/1924 36016G26KT 5000 -SN BKN015
No reported NOTAMs for that airfield.



MET'MAP, your aeronautical weather chart ! - Copyright ORBIFLY December 2007 - Disclaimer

ORBIFLY MET'MAP TEAM :

Programming & Development : Alexandra Zaïnal
Concept & Development : Baudouin d'Aumeries
Co-Development & Prog : Marc-Olivier Méhu
Technical & hardware support : Manuel Goepfert

Contact : metmap@orbifly.com




SOURCES & CREDITS :

   NOAA